Clayton, CA

10:08 AM PDT on September 21, 2014 (GMT -0700)
RAWS BLACK DIAMOND CA US | Change Station
CLOSE
Current Station
Personal Weather Station
Location: Clayton, CA
Elevation: 1600 ft
Nearby Weather Stations

Elev 1600 ft 37.95 °N, 121.88 °W | Updated 40 minutes ago

Overcast
Overcast
58 °F
Feels Like 58 °F
N
19
Wind Variable Wind from West
Gusts 28.0 mph

Today
High -- | Low -- °F
--% Chance of Precip.
Yesterday
High -- | Low -- °F
Precip. -- in
6:54 AM 7:06 PM
Waning Crescent, 6% visible
Pressure 29.96 in
Visibility 10.0 miles
Clouds Mostly Cloudy 1700 ft
Dew Point 58 °F
Humidity 100%
Rainfall 0.00 in
Snow Depth 0 in , 1 in , 1 in
UV 2 out of 12
Pollen 3.80 out of 12
PM2.5 Good
Flu Activity Not available.
METAR KCCR 211653Z 24012KT 10SM BKN017 19/14 A3000 RMK AO2 SLP145 T01890144

More Conditions Fewer Conditions

Pressure 29.96 in
Visibility 10.0 miles
Clouds Mostly Cloudy 1700 ft
Dew Point 58 °F
Humidity 100%
Rainfall 0.00 in
Snow Depth 0 in , 1 in , 1 in
UV 2 out of 12
Pollen 3.80 out of 12
PM2.5 Good
Flu Activity Not available.
METAR KCCR 211653Z 24012KT 10SM BKN017 19/14 A3000 RMK AO2 SLP145 T01890144

More Conditions Fewer Conditions

10-Day Weather Forecast

Almanac

Astronomy

Sep. 21, 2014 Rise Set
Actual Time 6:54 AM PDT 7:06 PM PDT
Civil Twilight 6:28 AM PDT 7:32 PM PDT
Nautical Twilight 5:57 AM PDT 8:02 PM PDT
Astronomical Twilight 5:26 AM PDT 8:34 PM PDT
Moon 4:35 AM PDT 5:43 PM PDT
Length of Visible Light 13h 03m
Length of Day
12h 11m
Tomorrow will be 2m 26s shorter.
Waning Crescent, 6% of the Moon is Illuminated
Today
Waning Crescent
Sep 24
New
Oct 1
First Quarter
Oct 8
Full
Oct 15
Last Quarter

Today's Extremes

State Highs State Lows

Community

WunderPhotos

Upload Photos

1,755,190 photos uploaded!

WunderBlogs® & News

Nearby

Air Quality

  Air Quality AQ Index Pollutant
Yesterday Good
OZONE
Yesterday Good
PM2.5
Current Good
PM2.5
Sunday Moderate
PM2.5
Monday Good
OZONE
Tuesday Good
OZONE
Wednesday Good
OZONE
Thursday Good
OZONE

Snow Depth

Station Depth Elevation
Hagan's Meadow 0 in 8000 ft
Leavitt Lake 1 in 9400 ft
Monitor Pass 1 in 8350 ft
Crowder Flat 0 in 5100 ft
Echo Peak 0 in 7800 ft

Earthquake Activity

City Distance Mag. Time & Date
Cloverdale, California 81 miles 2.5 9:15 PM PDT
2014-09-20
Livermore, California 19 miles 2.6 3:37 AM PDT
2014-09-19
The Geysers, California 71 miles 2.5 11:29 PM PDT
2014-09-17
Minimum magnitude displayed is 2.5.

Coastal Water Temperatures

Place Temperature
San Francisco, CA 66.0 °F
Richmond, CA 66.9 °F
Port Chicago, CA 69.1 °F

Nearby Weather Stations